Time;durP1;ratioP1;P1;durP2;ratioP2;P2;SDS_P1;SDS_P2;PMS_P1;PMS_P2;Temp;Humidity;BMP_temperature;BMP_pressure;BME280_temperature;BME280_humidity;BME280_pressure;Samples;Min_cycle;Max_cycle;Signal;HPM_P1;HPM_P2
2022/09/19 00:01:11;;;;;;;6.53;1.67;;;9.90;99.90;;;;;;5095542;28;20178;-77
2022/09/19 00:03:39;;;;;;;6.87;1.70;;;9.90;99.90;;;;;;5100017;28;20540;-77
2022/09/19 00:06:06;;;;;;;9.60;1.60;;;10.00;99.90;;;;;;5100652;28;20171;-77
2022/09/19 00:08:32;;;;;;;9.90;1.87;;;9.90;99.90;;;;;;5095809;28;20171;-77
2022/09/19 00:11:01;;;;;;;5.90;1.63;;;9.90;99.90;;;;;;5097775;28;20185;-77
2022/09/19 00:13:27;;;;;;;7.30;1.60;;;9.90;99.90;;;;;;5099020;28;20198;-77
2022/09/19 00:15:52;;;;;;;8.17;1.73;;;9.90;99.90;;;;;;5097902;28;20174;-77
2022/09/19 00:18:18;;;;;;;9.07;1.50;;;9.90;99.90;;;;;;5098427;28;20685;-76
2022/09/19 00:20:44;;;;;;;7.43;1.90;;;10.00;99.90;;;;;;5103101;28;20670;-77
2022/09/19 00:26:01;;;;;;;8.03;1.57;;;10.00;99.90;;;;;;5117580;28;20164;-77
2022/09/19 00:28:27;;;;;;;9.80;1.87;;;10.00;99.90;;;;;;5116766;28;20262;-76
2022/09/19 00:30:54;;;;;;;8.63;1.87;;;10.00;99.90;;;;;;5109930;28;20371;-77
2022/09/19 00:33:21;;;;;;;8.33;1.60;;;10.00;99.90;;;;;;5098046;28;20217;-77
2022/09/19 00:35:54;;;;;;;5.20;1.53;;;10.00;99.90;;;;;;5078413;28;20174;-77
2022/09/19 00:38:20;;;;;;;8.27;1.73;;;10.00;99.90;;;;;;5080731;28;20175;-77
2022/09/19 00:40:46;;;;;;;9.43;1.70;;;10.00;99.90;;;;;;5073928;28;20259;-77
2022/09/19 00:43:14;;;;;;;6.43;1.57;;;10.10;99.90;;;;;;5057225;28;20619;-76
2022/09/19 00:45:39;;;;;;;7.50;1.80;;;10.10;99.90;;;;;;5074391;28;20171;-76
2022/09/19 00:48:05;;;;;;;9.27;1.83;;;10.10;99.90;;;;;;5075103;28;20751;-78
2022/09/19 00:50:31;;;;;;;5.00;1.50;;;10.10;99.90;;;;;;5076308;28;20171;-78
2022/09/19 00:53:01;;;;;;;6.93;1.73;;;10.00;99.90;;;;;;5094769;28;20182;-77
2022/09/19 00:55:27;;;;;;;8.17;1.60;;;10.10;99.90;;;;;;5076876;28;20177;-77
2022/09/19 00:58:11;;;;;;;11.33;1.87;;;10.00;99.90;;;;;;5076714;28;20182;-77
2022/09/19 01:00:37;;;;;;;8.47;1.83;;;10.10;99.90;;;;;;5075065;28;20200;-77
2022/09/19 01:03:09;;;;;;;11.47;1.60;;;10.00;99.90;;;;;;5094099;28;20208;-77
2022/09/19 01:06:08;;;;;;;7.13;1.50;;;10.00;99.90;;;;;;5076143;28;20273;-77
2022/09/19 01:09:04;;;;;;;7.00;1.80;;;10.00;99.90;;;;;;5094115;28;20155;-77
2022/09/19 01:11:37;;;;;;;13.43;1.87;;;10.10;99.90;;;;;;5093323;28;20174;-76
2022/09/19 01:14:28;;;;;;;12.47;1.70;;;10.00;99.90;;;;;;5075942;28;20198;-76
2022/09/19 01:17:05;;;;;;;8.27;1.40;;;10.00;99.90;;;;;;5093903;28;20178;-77
2022/09/19 01:19:58;;;;;;;6.00;1.60;;;10.00;99.90;;;;;;5094590;28;20245;-77
2022/09/19 01:22:47;;;;;;;10.70;2.20;;;10.00;99.90;;;;;;5093491;28;20206;-77
2022/09/19 01:25:45;;;;;;;5.27;1.40;;;10.00;99.90;;;;;;5094526;28;20159;-77
2022/09/19 01:28:20;;;;;;;6.20;1.47;;;9.90;99.90;;;;;;5075485;28;20167;-77
2022/09/19 01:31:18;;;;;;;11.43;1.77;;;9.90;99.90;;;;;;5093372;28;20204;-77
2022/09/19 01:33:53;;;;;;;11.87;1.83;;;9.90;99.90;;;;;;5076287;28;20537;-77
2022/09/19 01:36:23;;;;;;;5.23;1.50;;;9.90;99.90;;;;;;5094405;28;20146;-77
2022/09/19 01:38:51;;;;;;;6.30;1.43;;;9.80;99.90;;;;;;5094258;28;20198;-77
2022/09/19 01:41:21;;;;;;;8.83;1.50;;;9.90;99.90;;;;;;5075345;28;20173;-77
2022/09/19 01:43:47;;;;;;;4.57;1.67;;;9.90;99.90;;;;;;5071511;28;20586;-77
2022/09/19 01:46:52;;;;;;;9.53;2.07;;;9.90;99.90;;;;;;5073893;28;20518;-78
2022/09/19 01:49:50;;;;;;;9.47;1.73;;;9.90;99.90;;;;;;5074144;28;20179;-77
2022/09/19 01:52:38;;;;;;;11.93;1.90;;;9.90;99.90;;;;;;5095469;28;20188;-78
2022/09/19 01:55:09;;;;;;;8.70;1.70;;;9.90;99.90;;;;;;5097662;28;20202;-76
2022/09/19 01:58:05;;;;;;;6.43;1.70;;;9.90;99.90;;;;;;5097361;28;20200;-77
2022/09/19 02:00:32;;;;;;;9.30;1.93;;;9.90;99.90;;;;;;5078842;28;20570;-77
2022/09/19 02:03:12;;;;;;;7.27;1.70;;;9.90;99.90;;;;;;5097297;28;20212;-77
2022/09/19 02:05:53;;;;;;;10.30;1.70;;;9.90;99.90;;;;;;5097311;28;20220;-77
2022/09/19 02:08:22;;;;;;;14.47;2.03;;;9.80;99.90;;;;;;5079669;28;20184;-77
2022/09/19 02:10:54;;;;;;;6.20;2.10;;;9.80;99.90;;;;;;5096685;28;20174;-77
2022/09/19 02:13:24;;;;;;;9.27;2.13;;;9.80;99.90;;;;;;5079289;28;20222;-77
2022/09/19 02:15:55;;;;;;;11.80;2.17;;;9.80;99.90;;;;;;5098006;28;20170;-77
2022/09/19 02:18:34;;;;;;;7.90;1.63;;;9.80;99.90;;;;;;5080071;28;20206;-77
2022/09/19 02:21:07;;;;;;;6.33;1.83;;;9.80;99.90;;;;;;5097399;28;20670;-77
2022/09/19 02:23:39;;;;;;;8.90;1.63;;;9.80;99.90;;;;;;5097669;28;20214;-77
2022/09/19 02:26:09;;;;;;;10.10;1.77;;;9.80;99.90;;;;;;5080831;28;20187;-77
2022/09/19 02:28:39;;;;;;;14.33;2.40;;;9.80;99.90;;;;;;5100700;28;20163;-77
2022/09/19 02:31:06;;;;;;;9.63;1.67;;;9.80;99.90;;;;;;5101024;28;20167;-77
2022/09/19 02:33:34;;;;;;;10.60;1.70;;;9.80;99.90;;;;;;5098173;28;20206;-77
2022/09/19 02:36:41;;;;;;;12.03;2.20;;;9.70;99.90;;;;;;5097479;28;20498;-77
2022/09/19 02:39:15;;;;;;;6.93;1.53;;;9.80;99.90;;;;;;5052525;28;20190;-77
2022/09/19 02:41:52;;;;;;;9.27;1.50;;;9.70;99.90;;;;;;5096390;28;20232;-76
2022/09/19 02:44:28;;;;;;;12.27;2.30;;;9.70;99.90;;;;;;5097349;28;20313;-77
2022/09/19 02:47:01;;;;;;;7.80;1.83;;;9.70;99.90;;;;;;5097403;28;20158;-77
2022/09/19 02:49:39;;;;;;;6.37;1.80;;;9.70;99.90;;;;;;5097754;28;20630;-78
2022/09/19 02:52:32;;;;;;;11.50;2.17;;;9.60;99.90;;;;;;5096842;28;20662;-77
2022/09/19 02:55:13;;;;;;;12.80;2.33;;;9.60;99.90;;;;;;5094012;28;20206;-77
2022/09/19 02:57:43;;;;;;;9.83;1.77;;;9.70;99.90;;;;;;5097303;28;20250;-77
2022/09/19 03:00:11;;;;;;;7.20;1.47;;;9.70;99.90;;;;;;5097114;28;20212;-78
2022/09/19 03:02:44;;;;;;;6.37;1.43;;;9.70;99.90;;;;;;5095267;28;20679;-77
2022/09/19 03:05:19;;;;;;;8.33;1.67;;;9.70;99.90;;;;;;5097234;28;20663;-78
2022/09/19 03:07:50;;;;;;;7.20;1.33;;;9.70;99.90;;;;;;5096577;28;20249;-77
2022/09/19 03:10:24;;;;;;;13.57;1.83;;;9.70;99.90;;;;;;5078688;28;20166;-79
2022/09/19 03:12:53;;;;;;;9.37;1.27;;;9.70;99.90;;;;;;5076640;28;20248;-77
2022/09/19 03:15:24;;;;;;;8.23;1.73;;;9.70;99.90;;;;;;5077528;28;20636;-77
2022/09/19 03:17:50;;;;;;;9.17;2.33;;;9.70;99.90;;;;;;5076774;28;20159;-77
2022/09/19 03:20:18;;;;;;;6.27;1.40;;;9.60;99.90;;;;;;5058107;28;20278;-77
2022/09/19 03:22:45;;;;;;;8.10;1.60;;;9.70;99.90;;;;;;5096826;28;20202;-77
2022/09/19 03:25:13;;;;;;;7.33;1.70;;;9.60;99.90;;;;;;5078249;28;20182;-78
2022/09/19 03:27:39;;;;;;;13.20;2.53;;;9.60;99.90;;;;;;5097049;28;20186;-76
2022/09/19 03:30:10;;;;;;;7.93;1.73;;;9.60;99.90;;;;;;5077374;28;20632;-79
2022/09/19 03:32:37;;;;;;;10.63;1.83;;;9.60;99.90;;;;;;5094967;28;20508;-77
2022/09/19 03:35:04;;;;;;;12.97;2.30;;;9.60;99.90;;;;;;5078214;28;20648;-77
2022/09/19 03:37:32;;;;;;;13.47;1.80;;;9.60;99.90;;;;;;5096614;28;20201;-77
2022/09/19 03:39:58;;;;;;;12.23;2.07;;;9.60;99.90;;;;;;5096825;28;20257;-78
2022/09/19 03:42:24;;;;;;;7.47;1.87;;;9.60;99.90;;;;;;5078043;28;20205;-78
2022/09/19 03:44:50;;;;;;;14.37;1.97;;;9.70;99.90;;;;;;5097240;28;20555;-78
2022/09/19 03:47:15;;;;;;;7.13;1.90;;;9.60;99.90;;;;;;5078621;28;20178;-78
2022/09/19 03:49:41;;;;;;;10.13;2.07;;;9.70;99.90;;;;;;5096297;28;20170;-77
2022/09/19 03:52:07;;;;;;;10.63;1.83;;;9.60;99.90;;;;;;5095579;28;20512;-78
2022/09/19 03:54:33;;;;;;;11.13;2.10;;;9.60;99.90;;;;;;5096081;28;20263;-76
2022/09/19 03:56:58;;;;;;;7.00;1.47;;;9.60;99.90;;;;;;5077767;28;20183;-78
2022/09/19 03:59:24;;;;;;;7.43;1.90;;;9.60;99.90;;;;;;5077582;28;20179;-78
2022/09/19 04:01:54;;;;;;;8.33;1.40;;;9.60;99.90;;;;;;5095295;28;20202;-78
2022/09/19 04:04:21;;;;;;;4.13;1.97;;;9.60;99.90;;;;;;5096539;28;20182;-76
2022/09/19 04:06:47;;;;;;;10.83;1.73;;;9.70;99.90;;;;;;5097265;28;20163;-78
2022/09/19 04:09:12;;;;;;;4.10;1.57;;;9.50;99.90;;;;;;5077850;28;20174;-78
2022/09/19 04:11:39;;;;;;;9.43;1.73;;;9.50;99.90;;;;;;5095242;28;20257;-77
2022/09/19 04:14:05;;;;;;;9.63;1.87;;;9.50;99.90;;;;;;5077170;28;20224;-77
2022/09/19 04:16:30;;;;;;;10.73;1.90;;;9.50;99.90;;;;;;5077689;28;20174;-78
2022/09/19 04:18:55;;;;;;;11.83;1.80;;;9.50;99.90;;;;;;5094941;28;20174;-78
2022/09/19 04:21:21;;;;;;;7.70;1.47;;;9.50;99.90;;;;;;5067132;28;20171;-77
2022/09/19 04:23:47;;;;;;;4.80;1.70;;;9.50;99.90;;;;;;5075198;28;20206;-78
2022/09/19 04:26:13;;;;;;;9.23;1.80;;;9.50;99.90;;;;;;5076731;28;20183;-79
2022/09/19 04:28:41;;;;;;;3.93;1.33;;;9.50;99.90;;;;;;5057860;28;20170;-78
2022/09/19 04:31:08;;;;;;;9.67;2.33;;;9.50;99.90;;;;;;5083104;28;20198;-78
2022/09/19 04:33:34;;;;;;;4.73;1.40;;;9.50;99.90;;;;;;5078907;28;20229;-78
2022/09/19 04:36:00;;;;;;;11.73;1.90;;;9.40;99.90;;;;;;5075340;28;20182;-78
2022/09/19 04:38:28;;;;;;;7.20;1.67;;;9.50;99.90;;;;;;5094560;28;20174;-76
2022/09/19 04:40:56;;;;;;;8.70;1.80;;;9.50;99.90;;;;;;5098036;28;20170;-76
2022/09/19 04:43:24;;;;;;;13.87;1.97;;;9.50;99.90;;;;;;5094936;28;20220;-77
2022/09/19 04:45:50;;;;;;;10.20;1.67;;;9.50;99.90;;;;;;5113512;28;20643;-76
2022/09/19 04:48:17;;;;;;;12.10;1.63;;;9.50;99.90;;;;;;5114011;28;20693;-76
2022/09/19 04:50:44;;;;;;;6.20;1.70;;;9.50;99.90;;;;;;5096283;28;20181;-77
2022/09/19 04:53:12;;;;;;;12.37;1.87;;;9.60;99.90;;;;;;5116571;28;20660;-77
2022/09/19 04:55:38;;;;;;;15.30;2.20;;;9.60;99.90;;;;;;5095731;28;20188;-77
2022/09/19 04:58:04;;;;;;;7.47;1.67;;;9.50;99.90;;;;;;5113579;28;20173;-77
2022/09/19 05:00:39;;;;;;;9.40;1.80;;;9.60;99.90;;;;;;5113320;28;20161;-76
2022/09/19 05:03:11;;;;;;;7.03;1.53;;;9.60;99.90;;;;;;5113323;28;22522;-76
2022/09/19 05:05:40;;;;;;;11.70;1.93;;;9.60;99.90;;;;;;5113427;28;20488;-75
2022/09/19 05:08:05;;;;;;;9.37;1.90;;;9.60;99.90;;;;;;5113283;28;20173;-76
2022/09/19 05:10:32;;;;;;;8.90;1.90;;;9.60;99.90;;;;;;5094866;28;20176;-75
2022/09/19 05:12:58;;;;;;;11.10;2.60;;;9.60;99.90;;;;;;5114299;28;20696;-78
2022/09/19 05:15:24;;;;;;;7.23;1.73;;;9.60;99.90;;;;;;5098404;28;20240;-77
2022/09/19 05:17:52;;;;;;;7.10;2.00;;;9.60;99.90;;;;;;5117649;28;20200;-78
2022/09/19 05:20:19;;;;;;;7.23;1.50;;;9.50;99.90;;;;;;5117904;28;20173;-78
2022/09/19 05:22:45;;;;;;;12.73;1.67;;;9.50;99.90;;;;;;5097291;28;20204;-78
2022/09/19 05:25:11;;;;;;;8.03;2.23;;;9.50;99.90;;;;;;5092860;28;20177;-77
2022/09/19 05:27:38;;;;;;;16.60;2.03;;;9.50;99.90;;;;;;5080661;28;20218;-78
2022/09/19 05:30:04;;;;;;;8.30;2.03;;;9.50;99.90;;;;;;5097353;28;20170;-77
2022/09/19 05:32:29;;;;;;;10.33;2.00;;;9.50;99.90;;;;;;5095855;28;20274;-78
2022/09/19 05:34:56;;;;;;;8.63;1.50;;;9.50;99.90;;;;;;5080012;28;20679;-77
2022/09/19 05:37:22;;;;;;;8.43;1.60;;;9.50;99.90;;;;;;5078571;28;20174;-77
2022/09/19 05:39:48;;;;;;;10.67;2.23;;;9.50;99.90;;;;;;5079112;28;20181;-77
2022/09/19 05:42:13;;;;;;;10.47;1.57;;;9.50;99.90;;;;;;5079468;28;20198;-77
2022/09/19 05:44:39;;;;;;;8.20;1.73;;;9.50;99.90;;;;;;5097384;28;20190;-77
2022/09/19 05:47:04;;;;;;;7.03;1.50;;;9.50;99.90;;;;;;5097836;28;20628;-77
2022/09/19 05:49:32;;;;;;;9.70;1.53;;;9.50;99.90;;;;;;5097175;28;20643;-77
2022/09/19 05:53:51;;;;;;;6.13;2.00;;;9.50;99.90;;;;;;5095936;28;20198;-77
2022/09/19 05:54:43;;;;;;;6.87;1.67;;;9.50;99.90;;;;;;5096888;28;20194;-77
2022/09/19 05:57:09;;;;;;;10.27;1.93;;;9.50;99.90;;;;;;5079072;28;20181;-77
2022/09/19 05:59:35;;;;;;;11.73;2.27;;;9.50;99.90;;;;;;5097255;28;20578;-77
2022/09/19 06:02:01;;;;;;;4.73;1.27;;;9.50;99.90;;;;;;5096849;28;20191;-77
2022/09/19 06:04:26;;;;;;;5.50;1.90;;;9.50;99.90;;;;;;5096164;28;20187;-77
2022/09/19 06:06:52;;;;;;;11.90;2.17;;;9.50;99.90;;;;;;5096584;28;20171;-77
2022/09/19 06:09:18;;;;;;;11.77;1.67;;;9.50;99.90;;;;;;5079006;28;20178;-77
2022/09/19 06:11:43;;;;;;;11.57;2.17;;;9.60;99.90;;;;;;5079331;28;20612;-77
2022/09/19 06:14:15;;;;;;;7.87;1.90;;;9.50;99.90;;;;;;5096619;28;20625;-76
2022/09/19 06:16:41;;;;;;;10.20;1.60;;;9.50;99.90;;;;;;5096186;28;20533;-76
2022/09/19 06:19:08;;;;;;;4.50;1.47;;;9.50;99.90;;;;;;5096206;28;20170;-77
2022/09/19 06:21:33;;;;;;;6.50;1.77;;;9.50;99.90;;;;;;5095879;28;20198;-77
2022/09/19 06:24:01;;;;;;;10.90;1.80;;;9.50;99.90;;;;;;5075294;28;20230;-76
2022/09/19 06:26:27;;;;;;;8.83;1.77;;;9.50;99.90;;;;;;5058066;28;20708;-76
2022/09/19 06:28:53;;;;;;;10.63;1.83;;;9.60;99.90;;;;;;5058169;28;20194;-77
2022/09/19 06:31:19;;;;;;;9.67;1.93;;;9.60;99.90;;;;;;5076061;28;20641;-77
2022/09/19 06:33:45;;;;;;;15.20;2.47;;;9.70;99.90;;;;;;5075992;28;20195;-76
2022/09/19 06:36:11;;;;;;;8.20;1.50;;;9.80;99.90;;;;;;5074438;28;20664;-77
2022/09/19 06:38:40;;;;;;;10.50;2.20;;;9.80;99.90;;;;;;5056751;28;20175;-76
2022/09/19 06:41:08;;;;;;;9.63;2.20;;;9.90;99.90;;;;;;5073525;28;20561;-77
2022/09/19 06:43:33;;;;;;;7.77;1.80;;;10.00;99.90;;;;;;5057939;28;20692;-77
2022/09/19 06:45:59;;;;;;;5.07;1.67;;;10.00;99.90;;;;;;5075645;28;20179;-76
2022/09/19 06:48:25;;;;;;;10.00;1.60;;;10.00;99.90;;;;;;5075442;28;20185;-77
2022/09/19 06:50:50;;;;;;;7.53;2.10;;;10.20;99.90;;;;;;5074802;28;20648;-76
2022/09/19 06:53:17;;;;;;;16.70;2.40;;;10.30;99.90;;;;;;5073394;28;20677;-76
2022/09/19 06:55:43;;;;;;;12.27;2.23;;;10.30;99.90;;;;;;5092158;28;20189;-77
2022/09/19 06:58:09;;;;;;;6.93;1.80;;;10.40;99.90;;;;;;5094740;28;20574;-77
2022/09/19 07:00:36;;;;;;;7.57;1.90;;;10.40;99.90;;;;;;5095605;28;20681;-77
2022/09/19 07:03:09;;;;;;;5.03;1.87;;;10.40;99.90;;;;;;5077727;28;20288;-77
2022/09/19 07:05:36;;;;;;;8.20;1.60;;;10.50;99.90;;;;;;5077731;28;20206;-77
2022/09/19 07:08:03;;;;;;;8.80;2.10;;;10.60;99.90;;;;;;5077688;28;20167;-77
2022/09/19 07:10:29;;;;;;;7.20;1.93;;;10.60;99.90;;;;;;5077690;28;20184;-77
2022/09/19 07:12:56;;;;;;;6.83;2.27;;;10.70;99.90;;;;;;5095475;28;20257;-77
2022/09/19 07:15:23;;;;;;;13.30;1.80;;;10.80;99.90;;;;;;5097228;28;20167;-77
2022/09/19 07:17:49;;;;;;;10.13;2.27;;;10.90;99.90;;;;;;5080499;28;20198;-77
2022/09/19 07:20:14;;;;;;;7.93;1.50;;;10.90;99.90;;;;;;5077291;28;20652;-77
2022/09/19 07:22:40;;;;;;;8.27;1.90;;;11.10;99.90;;;;;;5095173;28;20267;-76
2022/09/19 07:25:07;;;;;;;8.60;1.87;;;11.10;99.90;;;;;;5088872;28;20218;-77
2022/09/19 07:27:34;;;;;;;8.43;1.90;;;11.20;99.90;;;;;;5093109;28;20173;-77
2022/09/19 07:30:00;;;;;;;7.50;2.00;;;11.30;99.90;;;;;;5076166;28;20174;-77
2022/09/19 07:32:27;;;;;;;16.53;2.47;;;11.40;99.90;;;;;;5095468;28;20190;-77
2022/09/19 07:34:53;;;;;;;6.23;1.73;;;11.40;99.90;;;;;;5095486;28;20223;-77
2022/09/19 07:37:19;;;;;;;9.83;2.03;;;11.50;99.90;;;;;;5095906;28;20253;-77
2022/09/19 07:39:44;;;;;;;8.23;1.60;;;11.60;99.90;;;;;;5077447;28;20175;-77
2022/09/19 07:42:10;;;;;;;8.43;1.80;;;11.70;99.90;;;;;;5097123;28;20206;-79
2022/09/19 07:44:35;;;;;;;7.70;2.10;;;11.70;99.90;;;;;;5098647;28;20202;-78
2022/09/19 07:50:02;;;;;;;13.27;1.67;;;11.90;99.90;;;;;;5053555;28;20191;-77
2022/09/19 07:52:27;;;;;;;5.60;1.70;;;11.90;99.90;;;;;;5084684;28;20198;-78
2022/09/19 07:54:53;;;;;;;9.50;1.77;;;12.00;99.90;;;;;;5095526;28;20202;-78
2022/09/19 07:57:18;;;;;;;7.67;1.40;;;12.10;99.90;;;;;;5094987;28;20189;-77
2022/09/19 07:59:45;;;;;;;8.93;1.90;;;12.20;99.90;;;;;;5095179;28;20659;-77
2022/09/19 08:02:11;;;;;;;10.03;1.70;;;12.20;99.90;;;;;;5094979;28;20194;-78
2022/09/19 08:04:36;;;;;;;7.57;1.90;;;12.30;99.90;;;;;;5095462;28;20195;-78
2022/09/19 08:07:04;;;;;;;6.73;1.90;;;12.40;99.90;;;;;;5076835;28;20294;-77
2022/09/19 08:09:30;;;;;;;9.67;1.93;;;12.40;99.90;;;;;;5095405;28;20162;-77
2022/09/19 08:11:57;;;;;;;11.97;1.87;;;12.60;99.90;;;;;;5094476;28;20188;-78
2022/09/19 08:14:22;;;;;;;5.77;1.20;;;12.60;99.90;;;;;;5077203;28;20612;-78
2022/09/19 08:16:50;;;;;;;7.47;1.63;;;12.70;99.90;;;;;;5076550;28;20316;-78
2022/09/19 08:19:15;;;;;;;7.40;1.60;;;12.80;99.90;;;;;;5077463;28;20197;-78
2022/09/19 08:21:41;;;;;;;9.83;2.10;;;12.90;99.90;;;;;;5075733;28;20186;-77
2022/09/19 08:24:07;;;;;;;7.17;1.73;;;12.90;99.90;;;;;;5095217;28;20214;-77
2022/09/19 08:26:33;;;;;;;7.57;1.60;;;13.00;99.90;;;;;;5094340;28;20543;-78
2022/09/19 08:28:58;;;;;;;9.03;1.50;;;13.10;99.90;;;;;;5094989;28;20170;-78
2022/09/19 08:31:25;;;;;;;7.57;1.70;;;13.10;99.90;;;;;;5094674;28;20173;-78
2022/09/19 08:33:50;;;;;;;8.67;1.40;;;13.10;99.90;;;;;;5095360;28;20571;-77
2022/09/19 08:36:16;;;;;;;6.87;1.80;;;13.10;99.90;;;;;;5094578;28;20174;-78
2022/09/19 08:38:42;;;;;;;8.87;2.10;;;13.20;99.90;;;;;;5094254;28;20697;-77
2022/09/19 08:41:28;;;;;;;9.93;1.70;;;13.30;99.90;;;;;;5094035;28;20203;-78
2022/09/19 08:44:17;;;;;;;8.97;1.63;;;13.40;99.90;;;;;;5076501;28;20749;-78
2022/09/19 08:46:57;;;;;;;8.03;1.30;;;13.40;99.90;;;;;;5077207;28;20174;-77
2022/09/19 08:49:29;;;;;;;10.73;1.87;;;13.50;99.90;;;;;;5094646;28;20154;-77
2022/09/19 08:52:06;;;;;;;8.47;1.30;;;13.60;99.90;;;;;;5093705;28;20174;-78
2022/09/19 08:54:47;;;;;;;13.13;2.30;;;13.60;99.90;;;;;;5094822;28;20265;-77
2022/09/19 08:57:25;;;;;;;6.83;1.23;;;13.70;99.90;;;;;;5095370;28;20154;-78
2022/09/19 08:59:54;;;;;;;6.20;1.37;;;13.70;99.90;;;;;;5075894;28;20185;-78
2022/09/19 09:02:37;;;;;;;9.37;1.87;;;13.80;99.90;;;;;;5076268;28;20198;-77
2022/09/19 09:05:03;;;;;;;10.00;1.40;;;13.90;99.90;;;;;;5078015;28;20194;-79
2022/09/19 09:07:54;;;;;;;9.03;1.93;;;13.90;99.90;;;;;;5099128;28;20628;-79
2022/09/19 09:10:31;;;;;;;9.33;1.57;;;13.90;99.90;;;;;;5081104;28;20178;-79
2022/09/19 09:13:23;;;;;;;7.70;1.53;;;14.00;99.90;;;;;;5099910;28;20265;-79
2022/09/19 09:16:10;;;;;;;7.33;1.60;;;14.00;99.90;;;;;;5099926;28;20166;-79
2022/09/19 09:18:56;;;;;;;12.67;1.87;;;14.00;99.90;;;;;;5080986;28;20238;-80
2022/09/19 09:21:48;;;;;;;8.60;1.73;;;14.10;99.90;;;;;;5080658;28;20212;-80
2022/09/19 09:24:25;;;;;;;6.67;1.50;;;14.20;99.90;;;;;;5100099;28;20216;-79
2022/09/19 09:26:55;;;;;;;8.63;1.20;;;14.20;99.90;;;;;;5099973;28;20599;-79
2022/09/19 09:29:27;;;;;;;4.63;1.40;;;14.20;99.90;;;;;;5100984;28;20177;-79
2022/09/19 09:31:57;;;;;;;10.33;1.67;;;14.30;99.90;;;;;;5081391;28;20181;-79
2022/09/19 09:34:40;;;;;;;6.53;1.40;;;14.30;99.90;;;;;;5100870;28;20232;-79
2022/09/19 09:37:34;;;;;;;3.93;1.23;;;14.40;99.90;;;;;;5103823;28;20158;-79
2022/09/19 09:40:12;;;;;;;9.73;1.40;;;14.40;99.90;;;;;;5098240;28;20204;-79
2022/09/19 09:42:59;;;;;;;5.93;1.10;;;14.40;99.90;;;;;;5077278;28;20183;-78
2022/09/19 09:45:40;;;;;;;6.23;1.33;;;14.40;99.90;;;;;;5059177;28;20254;-80
2022/09/19 09:48:29;;;;;;;8.17;1.50;;;14.50;99.90;;;;;;5076536;28;20206;-81
2022/09/19 09:51:09;;;;;;;4.80;1.40;;;14.60;99.90;;;;;;5072108;28;20612;-79
2022/09/19 09:57:28;;;;;;;3.87;0.93;;;14.70;99.90;;;;;;5088354;28;20234;-79
2022/09/19 10:03:36;;;;;;;8.20;1.50;;;14.80;99.90;;;;;;5076929;28;20248;-79
2022/09/19 10:06:32;;;;;;;6.23;1.53;;;14.90;1.00;;;;;;5075644;28;20183;-78
2022/09/19 10:09:14;;;;;;;4.90;1.20;;;15.00;99.90;;;;;;5074567;28;20229;-78
2022/09/19 10:11:47;;;;;;;6.33;1.53;;;15.00;1.00;;;;;;5088000;28;20637;-77
2022/09/19 10:14:23;;;;;;;7.60;1.57;;;15.00;1.00;;;;;;5099375;28;20186;-78
2022/09/19 10:16:52;;;;;;;6.10;1.30;;;14.90;1.00;;;;;;5100279;28;20170;-78
2022/09/19 10:19:30;;;;;;;5.13;1.10;;;15.00;1.00;;;;;;5099734;28;20624;-78
2022/09/19 10:21:57;;;;;;;6.80;1.40;;;15.00;99.90;;;;;;5095913;28;20206;-76
2022/09/19 10:24:51;;;;;;;6.93;1.50;;;15.10;99.90;;;;;;5095306;28;20607;-79
2022/09/19 10:27:26;;;;;;;5.97;1.37;;;15.20;99.90;;;;;;5098837;28;20174;-78
2022/09/19 10:29:56;;;;;;;4.80;1.30;;;15.10;99.90;;;;;;5099356;28;20178;-78
2022/09/19 10:32:27;;;;;;;5.87;1.30;;;15.20;1.00;;;;;;5082451;28;20186;-78
2022/09/19 10:34:53;;;;;;;3.90;1.20;;;15.20;99.90;;;;;;5099017;28;20194;-78
2022/09/19 10:37:26;;;;;;;5.20;1.40;;;15.20;1.00;;;;;;5099364;28;20243;-78
2022/09/19 10:39:51;;;;;;;8.33;1.50;;;15.20;99.90;;;;;;5081554;28;20182;-78
2022/09/19 10:42:38;;;;;;;8.17;1.13;;;15.30;99.90;;;;;;5092941;28;20764;-78
2022/09/19 10:45:28;;;;;;;8.63;1.27;;;15.40;99.90;;;;;;5080711;28;20198;-78
2022/09/19 10:48:17;;;;;;;7.40;1.63;;;15.40;1.00;;;;;;5080211;28;20222;-78
2022/09/19 10:50:47;;;;;;;8.43;1.40;;;15.50;99.90;;;;;;5061428;28;20637;-78
2022/09/19 10:53:21;;;;;;;5.10;1.23;;;15.60;1.00;;;;;;5076387;28;20619;-78
2022/09/19 10:55:47;;;;;;;6.17;1.50;;;15.70;99.90;;;;;;5100946;28;20159;-78
2022/09/19 10:58:18;;;;;;;6.73;1.37;;;15.70;99.90;;;;;;5081076;28;20204;-78
2022/09/19 11:01:02;;;;;;;4.73;1.10;;;15.70;1.00;;;;;;5081023;28;20186;-78
2022/09/19 11:03:39;;;;;;;4.60;1.10;;;15.80;1.00;;;;;;5078257;28;20225;-78
2022/09/19 11:06:10;;;;;;;4.17;1.30;;;15.80;1.00;;;;;;5098252;28;20178;-78
2022/09/19 11:08:51;;;;;;;6.63;1.60;;;15.80;1.00;;;;;;5098088;28;20568;-78
2022/09/19 11:11:45;;;;;;;7.20;1.67;;;16.00;1.00;;;;;;5097465;28;20638;-78
2022/09/19 11:14:18;;;;;;;6.67;1.40;;;16.00;1.00;;;;;;5078883;28;20225;-77
2022/09/19 11:17:05;;;;;;;5.93;1.33;;;16.00;1.00;;;;;;5096794;28;20177;-78
2022/09/19 11:19:49;;;;;;;5.17;1.40;;;16.20;99.90;;;;;;5097521;28;20169;-77
2022/09/19 11:22:44;;;;;;;6.60;1.13;;;16.30;99.90;;;;;;5098068;28;20182;-77
2022/09/19 11:25:36;;;;;;;6.37;1.40;;;16.30;1.00;;;;;;5097991;28;20617;-76
2022/09/19 11:28:35;;;;;;;8.43;1.87;;;16.40;99.90;;;;;;5079869;28;20215;-78
2022/09/19 11:31:05;;;;;;;8.23;1.80;;;16.30;91.50;;;;;;5078318;28;20655;-78
2022/09/19 11:33:57;;;;;;;6.03;1.30;;;16.20;1.00;;;;;;5097436;28;20683;-77
2022/09/19 11:37:01;;;;;;;2.10;0.80;;;15.60;1.00;;;;;;5078357;28;20206;-79
2022/09/19 11:39:53;;;;;;;2.97;0.90;;;14.80;1.00;;;;;;5097732;28;20169;-78
2022/09/19 11:42:33;;;;;;;2.33;0.57;;;14.30;93.30;;;;;;5102923;28;20281;-79
2022/09/19 11:45:12;;;;;;;4.70;0.90;;;13.90;99.90;;;;;;5085420;28;20195;-78
2022/09/19 11:48:03;;;;;;;2.57;0.30;;;13.60;99.90;;;;;;5102645;28;20167;-78
2022/09/19 11:50:56;;;;;;;0.73;0.60;;;13.40;99.90;;;;;;5100928;28;20169;-79
2022/09/19 11:53:28;;;;;;;1.67;0.50;;;13.10;99.90;;;;;;5100761;28;20193;-78
2022/09/19 11:56:35;;;;;;;2.80;0.67;;;13.00;99.90;;;;;;5081831;28;20190;-79
2022/09/19 11:59:41;;;;;;;2.20;0.40;;;13.00;99.90;;;;;;5103493;28;20178;-78
2022/09/19 12:02:12;;;;;;;1.90;0.50;;;13.00;99.90;;;;;;5106084;28;20182;-79
2022/09/19 12:04:40;;;;;;;3.00;0.60;;;12.90;99.90;;;;;;5090718;28;20561;-78
2022/09/19 12:07:24;;;;;;;2.93;0.77;;;12.90;99.90;;;;;;5102790;28;20199;-78
2022/09/19 12:10:04;;;;;;;2.90;0.60;;;13.10;99.90;;;;;;5079588;28;20290;-78
2022/09/19 12:12:32;;;;;;;1.30;0.70;;;13.10;99.90;;;;;;5100666;28;20204;-79
2022/09/19 12:15:14;;;;;;;1.60;0.50;;;13.10;99.90;;;;;;5099291;28;20244;-78
2022/09/19 12:17:45;;;;;;;3.37;0.60;;;13.10;99.90;;;;;;5102180;28;20158;-77
2022/09/19 12:20:27;;;;;;;2.63;0.93;;;13.30;99.90;;;;;;5083903;28;20178;-79
2022/09/19 12:22:56;;;;;;;3.33;0.57;;;13.30;99.90;;;;;;5082874;28;20196;-79
2022/09/19 12:25:28;;;;;;;0.80;0.60;;;13.30;99.90;;;;;;5083246;28;20185;-79
2022/09/19 12:28:00;;;;;;;2.30;0.80;;;13.30;99.90;;;;;;5082996;28;20162;-79
2022/09/19 12:30:31;;;;;;;0.97;0.47;;;13.40;99.90;;;;;;5084147;28;20580;-79
2022/09/19 12:33:15;;;;;;;2.70;1.17;;;13.30;35.30;;;;;;5102857;28;20204;-79
2022/09/19 12:36:02;;;;;;;4.33;0.80;;;13.40;99.90;;;;;;5084859;28;20253;-78
2022/09/19 12:38:40;;;;;;;3.07;1.13;;;13.40;1.00;;;;;;5102543;28;20151;-79
2022/09/19 12:41:20;;;;;;;4.87;1.40;;;13.50;1.00;;;;;;5102334;28;20722;-79
2022/09/19 12:44:13;;;;;;;6.47;1.53;;;13.50;1.00;;;;;;5104104;28;20205;-79
2022/09/19 12:47:00;;;;;;;3.87;1.53;;;13.70;68.60;;;;;;5104490;28;20211;-78
2022/09/19 12:49:36;;;;;;;7.30;3.23;;;13.90;1.00;;;;;;5085566;28;20170;-79
2022/09/19 12:52:24;;;;;;;5.90;2.10;;;14.00;1.00;;;;;;5100792;28;20154;-78
2022/09/19 12:55:15;;;;;;;2.90;1.07;;;14.20;1.00;;;;;;5081924;28;20194;-79
2022/09/19 12:58:03;;;;;;;4.97;1.57;;;14.30;1.00;;;;;;5100171;28;20174;-77
2022/09/19 13:00:31;;;;;;;4.00;1.00;;;14.30;1.00;;;;;;5101996;28;20173;-78
2022/09/19 13:03:30;;;;;;;3.13;1.20;;;14.40;99.90;;;;;;5102412;28;20250;-78
2022/09/19 13:05:59;;;;;;;4.10;1.10;;;14.70;1.00;;;;;;5105919;28;20180;-78
2022/09/19 13:08:39;;;;;;;3.00;0.90;;;14.70;1.00;;;;;;5103973;28;20526;-79
2022/09/19 13:11:24;;;;;;;6.43;1.13;;;14.70;1.00;;;;;;5099540;28;20166;-78
2022/09/19 13:14:11;;;;;;;8.03;0.90;;;14.80;99.90;;;;;;5096977;28;20189;-79
2022/09/19 13:23:30;;;;;;;0.90;0.77;;;14.70;1.00;;;;;;5078587;28;20178;-78
2022/09/19 13:25:38;;;;;;;4.53;0.93;;;14.40;70.00;;;;;;5096137;28;20197;-78
2022/09/19 13:28:22;;;;;;;4.43;0.90;;;14.30;99.90;;;;;;5095466;28;20177;-77
2022/09/19 13:31:12;;;;;;;6.30;0.80;;;14.10;10.10;;;;;;5076122;28;20162;-78
2022/09/19 13:33:45;;;;;;;2.83;0.80;;;14.00;1.00;;;;;;5086309;28;20217;-77
2022/09/19 13:36:25;;;;;;;4.63;0.90;;;14.00;1.00;;;;;;5096659;28;20173;-78
2022/09/19 13:38:58;;;;;;;2.57;0.50;;;14.10;1.00;;;;;;5097558;28;20162;-78
2022/09/19 13:41:43;;;;;;;1.37;0.70;;;14.10;99.90;;;;;;5098128;28;20151;-78